Hlavní strana
METAR-TAF:

METAR-TAF

Letiště :

Sindal, Dánsko

zeměpisná šířka: 57-30N, zeměpisná délka: 010-13E, výška: 28 m

Aktuální stav počasí

Zpráva byla vytvořena před 24 minutami, v 12:50 UTC
Západojihozápadní vítr 23 kt
Teplota 5°C
Vlhkost vzduchu 93%
Tlak 1032 hPa
Viditelnost 10 km a více
Polojasno ve výšce 800 ft
Oblačno až skoro zataženo ve výšce 1200 ft

METAR: EKSN 011250Z 24023KT 9999 SCT008 BKN012 05/04 Q1032

Čas: 14:14 (13:14 UTC)

Předpověď počasí

Zpráva byla vytvořena před 1 hodinou a 23 minutami, v 11:51 UTC
Předpověď platná od 01 v 12 UTC do 01 v 16 UTC
Západní vítr 12 kt
Viditelnost: 7000 m
Oblačno až skoro zataženo ve výšce 800 ft
Dočasný
od 01 v 12 UTC do 01 v 16 UTC
Polojasno ve výšce 800 ft

TAF: EKSN 011151Z 0112/0116 26012KT 7000 BKN008 TEMPO 0112/0116 SCT008

Stav a předpovědi počasí z více než 4 000 letišť (zprávy METAR a TAF).

Červené a žluté tečky na mapě představují dostupné meteorologické stanice.

Když kurzor umístíte na tečku, zobrazí se název stanice.

Pak kliknutím zobrazíte stav a předpověď počasí.

Chcete-li změnit mapu, kliknutím na zelené tlačítko se znaménkem +mapu přiblížíte, kliknutím na zelené tlačítko se znaménkem – mapu oddálíte a kliknutím na zelené šipky přejdete na sousední mapy.


METAR-TAF: